Time;durP1;ratioP1;P1;durP2;ratioP2;P2;SDS_P1;SDS_P2;PMS_P1;PMS_P2;Temp;Humidity;BMP_temperature;BMP_pressure;BME280_temperature;BME280_humidity;BME280_pressure;Samples;Min_cycle;Max_cycle;Signal;HPM_P1;HPM_P2
2024/03/16 00:00:14;;;;;;;;;;;;;;;-144.99;100.00;67352.69;5101789;28;19919;-79
2024/03/16 00:02:40;;;;;;;;;;;;;;;-144.99;100.00;67352.69;5100577;28;19958;-79
2024/03/16 00:05:05;;;;;;;;;;;;;;;-144.99;100.00;67352.69;5100785;28;19919;-78
2024/03/16 00:07:30;;;;;;;;;;;;;;;-144.99;100.00;67352.69;5100284;28;19916;-79
2024/03/16 00:09:55;;;;;;;;;;;;;;;-144.99;100.00;67352.69;5099212;28;19913;-79
2024/03/16 00:12:21;;;;;;;;;;;;;;;-144.99;100.00;67352.69;5099684;28;19916;-79
2024/03/16 00:14:48;;;;;;;;;;;;;;;-144.99;100.00;67352.69;5090025;28;20408;-79
2024/03/16 00:17:13;;;;;;;;;;;;;;;-144.99;100.00;67352.69;5099812;28;19919;-79
2024/03/16 00:19:39;;;;;;;;;;;;;;;-144.99;100.00;67352.69;5097650;28;19912;-79
2024/03/16 00:22:04;;;;;;;;;;;;;;;-144.99;100.00;67352.69;5099089;28;20406;-78
2024/03/16 00:24:30;;;;;;;;;;;;;;;-144.99;100.00;67352.69;5099577;28;19934;-79
2024/03/16 00:26:57;;;;;;;;;;;;;;;-144.99;100.00;67352.69;5098625;28;19916;-79
2024/03/16 00:29:22;;;;;;;;;;;;;;;-144.99;100.00;67352.69;5087893;28;20298;-79
2024/03/16 00:31:48;;;;;;;;;;;;;;;-144.99;100.00;67352.69;5095294;28;19957;-79
2024/03/16 00:34:14;;;;;;;;;;;;;;;-144.99;100.00;67352.69;5097868;28;19912;-79
2024/03/16 00:36:39;;;;;;;;;;;;;;;-144.99;100.00;67352.69;5094769;28;19965;-79
2024/03/16 00:39:14;;;;;;;;;;;;;;;-144.99;100.00;67352.69;5097054;28;19913;-80
2024/03/16 00:41:40;;;;;;;;;;;;;;;-144.99;100.00;67352.69;5095024;28;20034;-79
2024/03/16 00:44:05;;;;;;;;;;;;;;;-144.99;100.00;67352.69;5096594;28;19981;-79
2024/03/16 00:46:30;;;;;;;;;;;;;;;-144.99;100.00;67352.69;5095071;28;19920;-79
2024/03/16 00:48:56;;;;;;;;;;;;;;;-144.99;100.00;67352.69;5096385;28;19944;-78
2024/03/16 00:51:21;;;;;;;;;;;;;;;-144.99;100.00;67352.69;5095833;28;19916;-79
2024/03/16 00:53:46;;;;;;;;;;;;;;;-144.99;100.00;67352.69;5094487;28;19912;-79
2024/03/16 00:56:12;;;;;;;;;;;;;;;-144.99;100.00;67352.69;5100506;28;19912;-79
2024/03/16 00:58:37;;;;;;;;;;;;;;;-144.99;100.00;67352.69;5099762;28;19935;-79
2024/03/16 01:01:03;;;;;;;;;;;;;;;-144.99;100.00;67352.69;5096426;28;20397;-79
2024/03/16 01:03:28;;;;;;;;;;;;;;;-144.99;100.00;67352.69;5097804;28;20309;-79
2024/03/16 01:05:54;;;;;;;;;;;;;;;-144.99;100.00;67352.69;5098645;28;19920;-79
2024/03/16 01:08:19;;;;;;;;;;;;;;;-144.99;100.00;67352.69;5100031;28;20402;-79
2024/03/16 01:10:44;;;;;;;;;;;;;;;-144.99;100.00;67352.69;5098024;28;19912;-79
2024/03/16 01:13:09;;;;;;;;;;;;;;;-144.99;100.00;67352.69;5098030;28;19919;-78
2024/03/16 01:15:35;;;;;;;;;;;;;;;-144.99;100.00;67352.69;5096891;28;19918;-78
2024/03/16 01:18:00;;;;;;;;;;;;;;;-144.99;100.00;67352.69;5096505;28;19912;-79
2024/03/16 01:20:27;;;;;;;;;;;;;;;-144.99;100.00;67352.69;5095459;28;19912;-79
2024/03/16 01:22:53;;;;;;;;;;;;;;;-144.99;100.00;67352.69;5097685;28;19999;-79
2024/03/16 01:25:18;;;;;;;;;;;;;;;-144.99;100.00;67352.69;5096576;28;20229;-79
2024/03/16 01:27:44;;;;;;;;;;;;;;;-144.99;100.00;67352.69;5096230;28;20412;-79
2024/03/16 01:30:09;;;;;;;;;;;;;;;-144.99;100.00;67352.69;5095670;28;19912;-79
2024/03/16 01:32:34;;;;;;;;;;;;;;;-144.99;100.00;67352.69;5099616;28;20106;-79
2024/03/16 01:34:59;;;;;;;;;;;;;;;-144.99;100.00;67352.69;5097084;28;19916;-79
2024/03/16 01:37:25;;;;;;;;;;;;;;;-144.99;100.00;67352.69;5097265;28;19983;-79
2024/03/16 01:39:50;;;;;;;;;;;;;;;-144.99;100.00;67352.69;5089042;28;19920;-79
2024/03/16 01:42:15;;;;;;;;;;;;;;;-144.99;100.00;67352.69;5098042;28;19961;-78
2024/03/16 01:45:01;;;;;;;;;;;;;;;-144.99;100.00;67352.69;5100317;28;19912;-79
2024/03/16 01:47:26;;;;;;;;;;;;;;;-144.99;100.00;67352.69;5097831;28;19916;-79
2024/03/16 01:49:51;;;;;;;;;;;;;;;-144.99;100.00;67352.69;5088689;28;19912;-79
2024/03/16 01:52:16;;;;;;;;;;;;;;;-144.99;100.00;67352.69;5087264;28;19916;-78
2024/03/16 01:54:42;;;;;;;;;;;;;;;-144.99;100.00;67352.69;5094645;28;20003;-78
2024/03/16 01:57:07;;;;;;;;;;;;;;;-144.99;100.00;67352.69;5093999;28;20302;-78
2024/03/16 01:59:33;;;;;;;;;;;;;;;-144.99;100.00;67352.69;5092317;28;19912;-78
2024/03/16 02:02:00;;;;;;;;;;;;;;;-144.99;100.00;67352.69;5089507;28;19912;-78
2024/03/16 02:04:25;;;;;;;;;;;;;;;-144.99;100.00;67352.69;5099851;28;19920;-79
2024/03/16 02:06:51;;;;;;;;;;;;;;;-144.99;100.00;67352.69;5104685;28;19958;-78
2024/03/16 02:09:16;;;;;;;;;;;;;;;-144.99;100.00;67352.69;5105230;28;19919;-79
2024/03/16 02:11:41;;;;;;;;;;;;;;;-144.99;100.00;67352.69;5105607;28;19912;-79
2024/03/16 02:14:07;;;;;;;;;;;;;;;-144.99;100.00;67352.69;5104267;28;20003;-80
2024/03/16 02:16:33;;;;;;;;;;;;;;;-144.99;100.00;67352.69;5103315;28;19965;-79
2024/03/16 02:18:58;;;;;;;;;;;;;;;-144.99;100.00;67352.69;5103259;28;19916;-80
2024/03/16 02:21:23;;;;;;;;;;;;;;;-144.99;100.00;67352.69;5101944;28;20283;-79
2024/03/16 02:23:49;;;;;;;;;;;;;;;-144.99;100.00;67352.69;5102253;28;19912;-79
2024/03/16 02:26:14;;;;;;;;;;;;;;;-144.99;100.00;67352.69;5097381;28;19917;-79
2024/03/16 02:28:39;;;;;;;;;;;;;;;-144.99;100.00;67352.69;5103060;28;19916;-78
2024/03/16 02:31:05;;;;;;;;;;;;;;;-144.99;100.00;67352.69;5102548;28;19912;-79
2024/03/16 02:33:30;;;;;;;;;;;;;;;-144.99;100.00;67352.69;5102716;28;19927;-79
2024/03/16 02:35:55;;;;;;;;;;;;;;;-144.99;100.00;67352.69;5102014;28;19912;-79
2024/03/16 02:38:21;;;;;;;;;;;;;;;-144.99;100.00;67352.69;5100277;28;20004;-79
2024/03/16 02:40:46;;;;;;;;;;;;;;;-144.99;100.00;67352.69;5098843;28;19989;-79
2024/03/16 02:43:11;;;;;;;;;;;;;;;-144.99;100.00;67352.69;5099320;28;19912;-79
2024/03/16 02:45:37;;;;;;;;;;;;;;;-144.99;100.00;67352.69;5098402;28;19938;-79
2024/03/16 02:48:02;;;;;;;;;;;;;;;-144.99;100.00;67352.69;5101099;28;19916;-79
2024/03/16 02:50:27;;;;;;;;;;;;;;;-144.99;100.00;67352.69;5100558;28;19913;-79
2024/03/16 02:52:53;;;;;;;;;;;;;;;-144.99;100.00;67352.69;5100772;28;19957;-79
2024/03/16 02:55:18;;;;;;;;;;;;;;;-144.99;100.00;67352.69;5100592;28;19919;-79
2024/03/16 02:57:44;;;;;;;;;;;;;;;-144.99;100.00;67352.69;5095818;28;20318;-79
2024/03/16 03:00:12;;;;;;;;;;;;;;;-144.99;100.00;67352.69;5092892;28;19943;-79
2024/03/16 03:02:37;;;;;;;;;;;;;;;-144.99;100.00;67352.69;5093021;28;19912;-79
2024/03/16 03:05:04;;;;;;;;;;;;;;;-144.99;100.00;67352.69;5096318;28;20393;-79
2024/03/16 03:07:29;;;;;;;;;;;;;;;-144.99;100.00;67352.69;5095121;28;20422;-80
2024/03/16 03:09:54;;;;;;;;;;;;;;;-144.99;100.00;67352.69;5097074;28;19974;-79
2024/03/16 03:12:19;;;;;;;;;;;;;;;-144.99;100.00;67352.69;5097162;28;19916;-79
2024/03/16 03:14:45;;;;;;;;;;;;;;;-144.99;100.00;67352.69;5097311;28;19993;-78
2024/03/16 03:17:10;;;;;;;;;;;;;;;-144.99;100.00;67352.69;5096352;28;19916;-79
2024/03/16 03:19:36;;;;;;;;;;;;;;;-144.99;100.00;67352.69;5096435;28;20434;-79
2024/03/16 03:22:01;;;;;;;;;;;;;;;-144.99;100.00;67352.69;5096011;28;20014;-79
2024/03/16 03:24:26;;;;;;;;;;;;;;;-144.99;100.00;67352.69;5097558;28;19961;-79
2024/03/16 03:26:52;;;;;;;;;;;;;;;-144.99;100.00;67352.69;5095330;28;20370;-79
2024/03/16 03:29:17;;;;;;;;;;;;;;;-144.99;100.00;67352.69;5095367;28;19965;-79
2024/03/16 03:31:42;;;;;;;;;;;;;;;-144.99;100.00;67352.69;5096275;28;19916;-78
2024/03/16 03:34:07;;;;;;;;;;;;;;;-144.99;100.00;67352.69;5084043;28;19935;-79
2024/03/16 03:36:33;;;;;;;;;;;;;;;-144.99;100.00;67352.69;5093443;28;19916;-77
2024/03/16 03:38:58;;;;;;;;;;;;;;;-144.99;100.00;67352.69;5093796;28;19963;-78
2024/03/16 03:41:23;;;;;;;;;;;;;;;-144.99;100.00;67352.69;5086319;28;19957;-78
2024/03/16 03:43:57;;;;;;;;;;;;;;;-144.99;100.00;67352.69;5091354;28;19927;-78
2024/03/16 03:46:39;;;;;;;;;;;;;;;-144.99;100.00;67352.69;5085701;28;19917;-79
2024/03/16 03:49:25;;;;;;;;;;;;;;;-144.99;100.00;67352.69;5077530;28;20011;-78
2024/03/16 03:51:49;;;;;;;;;;;;;;;-144.99;100.00;67352.69;5091138;28;19912;-78
2024/03/16 03:54:15;;;;;;;;;;;;;;;-144.99;100.00;67352.69;5088032;28;19912;-78
2024/03/16 03:56:40;;;;;;;;;;;;;;;-144.99;100.00;67352.69;5093029;28;19931;-78
2024/03/16 03:59:05;;;;;;;;;;;;;;;-144.99;100.00;67352.69;5093187;28;19912;-78
2024/03/16 04:01:30;;;;;;;;;;;;;;;-144.99;100.00;67352.69;5093354;28;20335;-79
2024/03/16 04:03:56;;;;;;;;;;;;;;;-144.99;100.00;67352.69;5093750;28;19969;-78
2024/03/16 04:06:23;;;;;;;;;;;;;;;-144.99;100.00;67352.69;5092645;28;20360;-78
2024/03/16 04:08:48;;;;;;;;;;;;;;;-144.99;100.00;67352.69;5094272;28;20279;-78
2024/03/16 04:11:14;;;;;;;;;;;;;;;-144.99;100.00;67352.69;5093019;28;19918;-78
2024/03/16 04:13:39;;;;;;;;;;;;;;;-144.99;100.00;67352.69;5093178;28;19965;-78
2024/03/16 04:16:04;;;;;;;;;;;;;;;-144.99;100.00;67352.69;5089780;28;19912;-79
2024/03/16 04:18:29;;;;;;;;;;;;;;;-144.99;100.00;67352.69;5088307;28;20005;-78
2024/03/16 04:20:55;;;;;;;;;;;;;;;-144.99;100.00;67352.69;5091396;28;19920;-78
2024/03/16 04:23:20;;;;;;;;;;;;;;;-144.99;100.00;67352.69;5085127;28;20313;-78
2024/03/16 04:25:45;;;;;;;;;;;;;;;-144.99;100.00;67352.69;5093453;28;20477;-79
2024/03/16 04:28:12;;;;;;;;;;;;;;;-144.99;100.00;67352.69;5092026;28;19968;-79
2024/03/16 04:30:37;;;;;;;;;;;;;;;-144.99;100.00;67352.69;5095933;28;19912;-78
2024/03/16 04:33:03;;;;;;;;;;;;;;;-144.99;100.00;67352.69;5096042;28;19935;-78
2024/03/16 04:35:28;;;;;;;;;;;;;;;-144.99;100.00;67352.69;5087563;28;19912;-78
2024/03/16 04:37:54;;;;;;;;;;;;;;;-144.99;100.00;67352.69;5089077;28;19916;-78
2024/03/16 04:40:19;;;;;;;;;;;;;;;-144.99;100.00;67352.69;5096432;28;19912;-79
2024/03/16 04:42:44;;;;;;;;;;;;;;;-144.99;100.00;67352.69;5088714;28;19916;-79
2024/03/16 04:45:09;;;;;;;;;;;;;;;-144.99;100.00;67352.69;5096348;28;19927;-78
2024/03/16 04:47:35;;;;;;;;;;;;;;;-144.99;100.00;67352.69;5092091;28;19964;-78
2024/03/16 04:50:00;;;;;;;;;;;;;;;-144.99;100.00;67352.69;5099475;28;19916;-79
2024/03/16 04:52:25;;;;;;;;;;;;;;;-144.99;100.00;67352.69;5106619;28;19912;-79
2024/03/16 04:54:51;;;;;;;;;;;;;;;-144.99;100.00;67352.69;5107552;28;19912;-78
2024/03/16 04:57:18;;;;;;;;;;;;;;;-144.99;100.00;67352.69;5096577;28;20008;-79
2024/03/16 04:59:43;;;;;;;;;;;;;;;-144.99;100.00;67352.69;5106243;28;20462;-79
2024/03/16 05:02:08;;;;;;;;;;;;;;;-144.99;100.00;67352.69;5098300;28;19912;-79
2024/03/16 05:04:34;;;;;;;;;;;;;;;-144.99;100.00;67352.69;5089405;28;20284;-79
2024/03/16 05:06:59;;;;;;;;;;;;;;;-144.99;100.00;67352.69;5104567;28;20400;-79
2024/03/16 05:09:25;;;;;;;;;;;;;;;-144.99;100.00;67352.69;5097362;28;19919;-79
2024/03/16 05:11:50;;;;;;;;;;;;;;;-144.99;100.00;67352.69;5101500;28;19931;-79
2024/03/16 05:14:15;;;;;;;;;;;;;;;-144.99;100.00;67352.69;5097387;28;19908;-79
2024/03/16 05:16:41;;;;;;;;;;;;;;;-144.99;100.00;67352.69;5095308;28;19919;-78
2024/03/16 05:19:06;;;;;;;;;;;;;;;-144.99;100.00;67352.69;5094487;28;19959;-78
2024/03/16 05:21:32;;;;;;;;;;;;;;;-144.99;100.00;67352.69;5096386;28;19982;-78
2024/03/16 05:23:59;;;;;;;;;;;;;;;-144.99;100.00;67352.69;5095231;28;19912;-78
2024/03/16 05:26:25;;;;;;;;;;;;;;;-144.99;100.00;67352.69;5094489;28;19923;-78
2024/03/16 05:28:50;;;;;;;;;;;;;;;-144.99;100.00;67352.69;5097310;28;20012;-78
2024/03/16 05:31:16;;;;;;;;;;;;;;;-144.99;100.00;67352.69;5090054;28;20382;-78
2024/03/16 05:33:41;;;;;;;;;;;;;;;-144.99;100.00;67352.69;5093794;28;20004;-78
2024/03/16 05:36:09;;;;;;;;;;;;;;;-144.99;100.00;67352.69;5086785;28;20406;-78
2024/03/16 05:38:37;;;;;;;;;;;;;;;-144.99;100.00;67352.69;5095071;28;19912;-78
2024/03/16 05:41:04;;;;;;;;;;;;;;;-144.99;100.00;67352.69;5090385;28;20367;-78
2024/03/16 05:43:29;;;;;;;;;;;;;;;-144.99;100.00;67352.69;5091117;28;19919;-78
2024/03/16 05:45:55;;;;;;;;;;;;;;;-144.99;100.00;67352.69;5085377;28;19921;-78
2024/03/16 05:48:20;;;;;;;;;;;;;;;-144.99;100.00;67352.69;5083326;28;19916;-78
2024/03/16 05:50:48;;;;;;;;;;;;;;;-144.99;100.00;67352.69;5092260;28;20287;-78
2024/03/16 05:53:14;;;;;;;;;;;;;;;-144.99;100.00;67352.69;5094905;28;19951;-78
2024/03/16 05:55:39;;;;;;;;;;;;;;;-144.99;100.00;67352.69;5095418;28;19916;-78
2024/03/16 05:58:05;;;;;;;;;;;;;;;-144.99;100.00;67352.69;5087637;28;19932;-78
2024/03/16 06:00:30;;;;;;;;;;;;;;;-144.99;100.00;67352.69;5086791;28;20421;-78
2024/03/16 06:02:55;;;;;;;;;;;;;;;-144.99;100.00;67352.69;5085320;28;19916;-78
2024/03/16 06:05:21;;;;;;;;;;;;;;;-144.99;100.00;67352.69;5094747;28;19912;-78
2024/03/16 06:07:46;;;;;;;;;;;;;;;-144.99;100.00;67352.69;5096160;28;19947;-79
2024/03/16 06:10:12;;;;;;;;;;;;;;;-144.99;100.00;67352.69;5087786;28;19912;-78
2024/03/16 06:12:37;;;;;;;;;;;;;;;-144.99;100.00;67352.69;5096929;28;19926;-78
2024/03/16 06:15:05;;;;;;;;;;;;;;;-144.99;100.00;67352.69;5097052;28;19916;-78
2024/03/16 06:17:30;;;;;;;;;;;;;;;-144.99;100.00;67352.69;5096646;28;19965;-79
2024/03/16 06:19:56;;;;;;;;;;;;;;;-144.99;100.00;67352.69;5095373;28;19912;-78
2024/03/16 06:22:21;;;;;;;;;;;;;;;-144.99;100.00;67352.69;5094009;28;19919;-79
2024/03/16 06:24:47;;;;;;;;;;;;;;;-144.99;100.00;67352.69;5093235;28;19923;-79
2024/03/16 06:27:18;;;;;;;;;;;;;;;-144.99;100.00;67352.69;5085860;28;20006;-79
2024/03/16 06:29:51;;;;;;;;;;;;;;;-144.99;100.00;67352.69;5090537;28;20310;-79
2024/03/16 06:32:20;;;;;;;;;;;;;;;-144.99;100.00;67352.69;5085960;28;20344;-80
2024/03/16 06:34:45;;;;;;;;;;;;;;;-144.99;100.00;67352.69;5093705;28;19912;-78
2024/03/16 06:37:10;;;;;;;;;;;;;;;-144.99;100.00;67352.69;5092103;28;20443;-78
2024/03/16 06:39:35;;;;;;;;;;;;;;;-144.99;100.00;67352.69;5091424;28;19955;-79
2024/03/16 06:42:01;;;;;;;;;;;;;;;-144.99;100.00;67352.69;5093848;28;19938;-79
2024/03/16 06:44:26;;;;;;;;;;;;;;;-144.99;100.00;67352.69;5093300;28;20382;-79
2024/03/16 06:46:51;;;;;;;;;;;;;;;-144.99;100.00;67352.69;5093707;28;19916;-79
2024/03/16 06:49:17;;;;;;;;;;;;;;;-144.99;100.00;67352.69;5093460;28;19919;-80
2024/03/16 06:51:43;;;;;;;;;;;;;;;-144.99;100.00;67352.69;5092515;28;19912;-78
2024/03/16 06:54:08;;;;;;;;;;;;;;;-144.99;100.00;67352.69;5092887;28;20375;-78
2024/03/16 06:56:33;;;;;;;;;;;;;;;-144.99;100.00;67352.69;5092086;28;20336;-78
2024/03/16 06:58:59;;;;;;;;;;;;;;;-144.99;100.00;67352.69;5085817;28;19954;-79
2024/03/16 07:01:24;;;;;;;;;;;;;;;-144.99;100.00;67352.69;5093171;28;20316;-79
2024/03/16 07:03:51;;;;;;;;;;;;;;;-144.99;100.00;67352.69;5092539;28;19931;-78
2024/03/16 07:06:16;;;;;;;;;;;;;;;-144.99;100.00;67352.69;5093980;28;19962;-79
2024/03/16 07:08:41;;;;;;;;;;;;;;;-144.99;100.00;67352.69;5094385;28;19923;-79
2024/03/16 07:11:07;;;;;;;;;;;;;;;-144.99;100.00;67352.69;5091964;28;19919;-79
2024/03/16 07:13:32;;;;;;;;;;;;;;;-144.99;100.00;67352.69;5093974;28;20293;-78
2024/03/16 07:15:58;;;;;;;;;;;;;;;-144.99;100.00;67352.69;5085293;28;19912;-79
2024/03/16 07:18:23;;;;;;;;;;;;;;;-144.99;100.00;67352.69;5092560;28;19913;-79
2024/03/16 07:20:48;;;;;;;;;;;;;;;-144.99;100.00;67352.69;5092444;28;19919;-79
2024/03/16 07:23:13;;;;;;;;;;;;;;;-144.99;100.00;67352.69;5085622;28;20006;-78
2024/03/16 07:25:39;;;;;;;;;;;;;;;-144.99;100.00;67352.69;5091422;28;19912;-79
2024/03/16 07:28:04;;;;;;;;;;;;;;;-144.99;100.00;67352.69;5091797;28;19923;-78
2024/03/16 07:30:30;;;;;;;;;;;;;;;-144.99;100.00;67352.69;5091177;28;19912;-79
2024/03/16 07:32:56;;;;;;;;;;;;;;;-144.99;100.00;67352.69;5096565;28;20405;-79
2024/03/16 07:35:21;;;;;;;;;;;;;;;-144.99;100.00;67352.69;5105502;28;19941;-79
2024/03/16 07:37:46;;;;;;;;;;;;;;;-144.99;100.00;67352.69;5104807;28;19939;-80
2024/03/16 07:40:15;;;;;;;;;;;;;;;-144.99;100.00;67352.69;5105282;28;20395;-80
2024/03/16 07:42:43;;;;;;;;;;;;;;;-144.99;100.00;67352.69;5104138;28;19920;-80
2024/03/16 07:45:08;;;;;;;;;;;;;;;-144.99;100.00;67352.69;5104978;28;19912;-81
2024/03/16 07:47:34;;;;;;;;;;;;;;;-144.99;100.00;67352.69;5096454;28;19917;-80
2024/03/16 07:49:59;;;;;;;;;;;;;;;-144.99;100.00;67352.69;5095021;28;19912;-79
2024/03/16 07:52:24;;;;;;;;;;;;;;;-144.99;100.00;67352.69;5101880;28;19912;-80
2024/03/16 07:54:50;;;;;;;;;;;;;;;-144.99;100.00;67352.69;5102669;28;19912;-80
2024/03/16 07:57:15;;;;;;;;;;;;;;;-144.99;100.00;67352.69;5102469;28;19938;-80
2024/03/16 07:59:40;;;;;;;;;;;;;;;-144.99;100.00;67352.69;5101658;28;19916;-81
2024/03/16 08:02:06;;;;;;;;;;;;;;;-144.99;100.00;67352.69;5100804;28;19927;-81
2024/03/16 08:04:33;;;;;;;;;;;;;;;-144.99;100.00;67352.69;5102175;28;19922;-80
2024/03/16 08:06:58;;;;;;;;;;;;;;;-144.99;100.00;67352.69;5103802;28;19923;-80
2024/03/16 08:09:24;;;;;;;;;;;;;;;-144.99;100.00;67352.69;5104599;28;19912;-80
2024/03/16 08:11:49;;;;;;;;;;;;;;;-144.99;100.00;67352.69;5104305;28;19983;-80
2024/03/16 08:14:14;;;;;;;;;;;;;;;-144.99;100.00;67352.69;5103853;28;19912;-80
2024/03/16 08:16:39;;;;;;;;;;;;;;;-144.99;100.00;67352.69;5090089;28;20020;-80
2024/03/16 08:19:05;;;;;;;;;;;;;;;-144.99;100.00;67352.69;5068626;28;19974;-80
2024/03/16 08:21:32;;;;;;;;;;;;;;;-144.99;100.00;67352.69;5067264;28;19962;-80
2024/03/16 08:23:57;;;;;;;;;;;;;;;-144.99;100.00;67352.69;5065620;28;19919;-80
2024/03/16 08:26:22;;;;;;;;;;;;;;;-144.99;100.00;67352.69;5064171;28;19921;-80
2024/03/16 08:28:48;;;;;;;;;;;;;;;-144.99;100.00;67352.69;5065746;28;20290;-80
2024/03/16 08:31:13;;;;;;;;;;;;;;;-144.99;100.00;67352.69;5079335;28;19916;-80
2024/03/16 08:33:38;;;;;;;;;;;;;;;-144.99;100.00;67352.69;5087022;28;19916;-80
2024/03/16 08:36:05;;;;;;;;;;;;;;;-144.99;100.00;67352.69;5097524;28;19955;-80
2024/03/16 08:38:32;;;;;;;;;;;;;;;-144.99;100.00;67352.69;5096025;28;20356;-79
2024/03/16 08:40:57;;;;;;;;;;;;;;;-144.99;100.00;67352.69;5094374;28;19919;-79
2024/03/16 08:43:23;;;;;;;;;;;;;;;-144.99;100.00;67352.69;5095239;28;20289;-79
2024/03/16 08:45:48;;;;;;;;;;;;;;;-144.99;100.00;67352.69;5096828;28;19912;-79
2024/03/16 08:48:13;;;;;;;;;;;;;;;-144.99;100.00;67352.69;5096816;28;19916;-79
2024/03/16 08:50:39;;;;;;;;;;;;;;;-144.99;100.00;67352.69;5096022;28;19934;-79
2024/03/16 08:53:04;;;;;;;;;;;;;;;-144.99;100.00;67352.69;5095779;28;19918;-79
2024/03/16 08:55:29;;;;;;;;;;;;;;;-144.99;100.00;67352.69;5097091;28;19982;-79
2024/03/16 08:57:54;;;;;;;;;;;;;;;-144.99;100.00;67352.69;5097154;28;19949;-80
2024/03/16 09:00:21;;;;;;;;;;;;;;;-144.99;100.00;67352.69;5096292;28;19916;-80
2024/03/16 09:02:46;;;;;;;;;;;;;;;-144.99;100.00;67352.69;5096255;28;19916;-79
2024/03/16 09:05:11;;;;;;;;;;;;;;;-144.99;100.00;67352.69;5098722;28;19926;-79
2024/03/16 09:07:40;;;;;;;;;;;;;;;-144.99;100.00;67352.69;5095829;28;19939;-79
2024/03/16 09:10:11;;;;;;;;;;;;;;;-144.99;100.00;67352.69;5097081;28;19934;-79
2024/03/16 09:12:37;;;;;;;;;;;;;;;-144.99;100.00;67352.69;5093361;28;19916;-79
2024/03/16 09:15:05;;;;;;;;;;;;;;;-144.99;100.00;67352.69;5096352;28;20286;-80
2024/03/16 09:17:30;;;;;;;;;;;;;;;-144.99;100.00;67352.69;5096617;28;19958;-79
2024/03/16 09:19:56;;;;;;;;;;;;;;;-144.99;100.00;67352.69;5094609;28;19924;-79
2024/03/16 09:22:21;;;;;;;;;;;;;;;-144.99;100.00;67352.69;5089909;28;20003;-78
2024/03/16 09:24:47;;;;;;;;;;;;;;;-144.99;100.00;67352.69;5096534;28;19957;-79
2024/03/16 09:27:12;;;;;;;;;;;;;;;-144.99;100.00;67352.69;5093050;28;19938;-80
2024/03/16 09:29:41;;;;;;;;;;;;;;;-144.99;100.00;67352.69;5099177;28;20379;-79
2024/03/16 09:32:07;;;;;;;;;;;;;;;-144.99;100.00;67352.69;5096739;28;19920;-79
2024/03/16 09:34:32;;;;;;;;;;;;;;;-144.99;100.00;67352.69;5094685;28;19916;-80
2024/03/16 09:36:57;;;;;;;;;;;;;;;-144.99;100.00;67352.69;5095529;28;19947;-80
2024/03/16 09:39:26;;;;;;;;;;;;;;;-144.99;100.00;67352.69;5095733;28;20271;-79
2024/03/16 09:41:52;;;;;;;;;;;;;;;-144.99;100.00;67352.69;5095465;28;19912;-79
2024/03/16 09:44:17;;;;;;;;;;;;;;;-144.99;100.00;67352.69;5095904;28;19912;-80
2024/03/16 09:46:43;;;;;;;;;;;;;;;-144.99;100.00;67352.69;5097825;28;20336;-80
2024/03/16 09:49:10;;;;;;;;;;;;;;;-144.99;100.00;67352.69;5096407;28;19912;-82
2024/03/16 09:51:37;;;;;;;;;;;;;;;-144.99;100.00;67352.69;5098806;28;20290;-80
2024/03/16 09:54:08;;;;;;;;;;;;;;;-144.99;100.00;67352.69;5096586;28;19919;-80
2024/03/16 09:56:34;;;;;;;;;;;;;;;-144.99;100.00;67352.69;5097103;28;19912;-80
2024/03/16 09:58:59;;;;;;;;;;;;;;;-144.99;100.00;67352.69;5090402;28;19912;-79
2024/03/16 10:01:25;;;;;;;;;;;;;;;-144.99;100.00;67352.69;5097504;28;19919;-79
2024/03/16 10:03:50;;;;;;;;;;;;;;;-144.99;100.00;67352.69;5097911;28;20007;-80
2024/03/16 10:06:16;;;;;;;;;;;;;;;-144.99;100.00;67352.69;5087013;28;19999;-79
2024/03/16 10:08:41;;;;;;;;;;;;;;;-144.99;100.00;67352.69;5098614;28;20338;-80
2024/03/16 10:11:10;;;;;;;;;;;;;;;-144.99;100.00;67352.69;5096535;28;20390;-80
2024/03/16 10:13:39;;;;;;;;;;;;;;;-144.99;100.00;67352.69;5098551;28;19912;-80
2024/03/16 10:16:10;;;;;;;;;;;;;;;-144.99;100.00;67352.69;5098663;28;19912;-80
2024/03/16 10:18:35;;;;;;;;;;;;;;;-144.99;100.00;67352.69;5100491;28;19916;-79
2024/03/16 10:21:01;;;;;;;;;;;;;;;-144.99;100.00;67352.69;5106443;28;19957;-80
2024/03/16 10:23:29;;;;;;;;;;;;;;;-144.99;100.00;67352.69;5100206;28;19962;-80
2024/03/16 10:25:56;;;;;;;;;;;;;;;-144.99;100.00;67352.69;5103111;28;19923;-79
2024/03/16 10:28:21;;;;;;;;;;;;;;;-144.99;100.00;67352.69;5104146;28;19927;-79
2024/03/16 10:30:46;;;;;;;;;;;;;;;-144.99;100.00;67352.69;5101714;28;19916;-79
2024/03/16 10:33:12;;;;;;;;;;;;;;;-144.99;100.00;67352.69;5101515;28;19912;-80
2024/03/16 10:35:39;;;;;;;;;;;;;;;-144.99;100.00;67352.69;5098304;28;19951;-79
2024/03/16 10:38:13;;;;;;;;;;;;;;;-144.99;100.00;67352.69;5097097;28;19912;-79
2024/03/16 10:40:39;;;;;;;;;;;;;;;-144.99;100.00;67352.69;5099993;28;19912;-79
2024/03/16 10:43:09;;;;;;;;;;;;;;;-144.99;100.00;67352.69;5088609;28;20007;-79
2024/03/16 10:45:34;;;;;;;;;;;;;;;-144.99;100.00;67352.69;5097462;28;19912;-80
2024/03/16 10:48:02;;;;;;;;;;;;;;;-144.99;100.00;67352.69;5097347;28;19923;-81
2024/03/16 10:50:29;;;;;;;;;;;;;;;-144.99;100.00;67352.69;5099662;28;20386;-80
2024/03/16 10:52:55;;;;;;;;;;;;;;;-144.99;100.00;67352.69;5100881;28;19916;-79
2024/03/16 10:55:27;;;;;;;;;;;;;;;-144.99;100.00;67352.69;5093255;28;19977;-78
2024/03/16 10:57:53;;;;;;;;;;;;;;;-144.99;100.00;67352.69;5097279;28;19916;-80
2024/03/16 11:00:25;;;;;;;;;;;;;;;-144.99;100.00;67352.69;5096175;28;20355;-79
2024/03/16 11:02:54;;;;;;;;;;;;;;;-144.99;100.00;67352.69;5101693;28;19938;-79
2024/03/16 11:05:36;;;;;;;;;;;;;;;-144.99;100.00;67352.69;5099752;28;19912;-80
2024/03/16 11:08:11;;;;;;;;;;;;;;;-144.99;100.00;67352.69;5099004;28;19920;-79
2024/03/16 11:10:38;;;;;;;;;;;;;;;-144.99;100.00;67352.69;5096649;28;19920;-79
2024/03/16 11:13:10;;;;;;;;;;;;;;;-144.99;100.00;67352.69;5096761;28;19912;-79
2024/03/16 11:15:38;;;;;;;;;;;;;;;-144.99;100.00;67352.69;5100745;28;19912;-79
2024/03/16 11:18:30;;;;;;;;;;;;;;;-144.99;100.00;67352.69;5099036;28;19912;-79
2024/03/16 11:20:57;;;;;;;;;;;;;;;-144.99;100.00;67352.69;5095904;28;19919;-79
2024/03/16 11:23:24;;;;;;;;;;;;;;;-144.99;100.00;67352.69;5101324;28;19912;-79
2024/03/16 11:25:49;;;;;;;;;;;;;;;-144.99;100.00;67352.69;5098750;28;19919;-79
2024/03/16 11:28:15;;;;;;;;;;;;;;;-144.99;100.00;67352.69;5099086;28;19916;-79
2024/03/16 11:30:40;;;;;;;;;;;;;;;-144.99;100.00;67352.69;5099928;28;20302;-79
2024/03/16 11:33:17;;;;;;;;;;;;;;;-144.99;100.00;67352.69;5101083;28;20401;-81
2024/03/16 11:35:43;;;;;;;;;;;;;;;-144.99;100.00;67352.69;5101471;28;20015;-79
2024/03/16 11:38:12;;;;;;;;;;;;;;;-144.99;100.00;67352.69;5100094;28;19943;-79
2024/03/16 11:40:38;;;;;;;;;;;;;;;-144.99;100.00;67352.69;5097594;28;19938;-79
2024/03/16 11:43:03;;;;;;;;;;;;;;;-144.99;100.00;67352.69;5100439;28;19912;-78
2024/03/16 11:45:29;;;;;;;;;;;;;;;-144.99;100.00;67352.69;5098606;28;20275;-79
2024/03/16 11:47:54;;;;;;;;;;;;;;;-144.99;100.00;67352.69;5098787;28;20010;-80
2024/03/16 11:50:19;;;;;;;;;;;;;;;-144.99;100.00;67352.69;5097478;28;19912;-79
2024/03/16 11:52:45;;;;;;;;;;;;;;;-144.99;100.00;67352.69;5099385;28;19912;-78
2024/03/16 11:55:10;;;;;;;;;;;;;;;-144.99;100.00;67352.69;5099137;28;19916;-79
2024/03/16 11:57:36;;;;;;;;;;;;;;;-144.99;100.00;67352.69;5101399;28;19912;-78
2024/03/16 12:00:01;;;;;;;;;;;;;;;-144.99;100.00;67352.69;5096708;28;20267;-78
2024/03/16 12:02:26;;;;;;;;;;;;;;;-144.99;100.00;67352.69;5099058;28;19915;-78
2024/03/16 12:04:52;;;;;;;;;;;;;;;-144.99;100.00;67352.69;5099353;28;19912;-79
2024/03/16 12:07:18;;;;;;;;;;;;;;;-144.99;100.00;67352.69;5098265;28;19916;-79
2024/03/16 12:09:43;;;;;;;;;;;;;;;-144.99;100.00;67352.69;5097133;28;20289;-79
2024/03/16 12:12:09;;;;;;;;;;;;;;;-144.99;100.00;67352.69;5090711;28;19912;-78